Time;durP1;ratioP1;P1;durP2;ratioP2;P2;SDS_P1;SDS_P2;PMS_P1;PMS_P2;Temp;Humidity;BMP_temperature;BMP_pressure;BME280_temperature;BME280_humidity;BME280_pressure;Samples;Min_cycle;Max_cycle;Signal;HPM_P1;HPM_P2
2023/05/31 06:32:37;;;;;;;1.73;1.60;;;30.20;16.40;;;;;;5795417;23;20451;-70
2023/05/31 06:35:06;;;;;;;1.70;1.58;;;30.90;16.50;;;;;;4918919;29;20220;-68
2023/05/31 06:37:33;;;;;;;2.05;1.90;;;31.40;14.50;;;;;;4918842;29;20212;-68
2023/05/31 06:40:00;;;;;;;2.42;1.70;;;31.30;15.30;;;;;;4919334;29;20215;-70
2023/05/31 06:42:27;;;;;;;1.80;1.70;;;31.50;14.30;;;;;;4919200;29;20224;-70
2023/05/31 06:44:53;;;;;;;1.98;1.80;;;31.80;14.30;;;;;;4919197;29;20204;-70
2023/05/31 06:47:20;;;;;;;1.67;1.58;;;30.90;14.00;;;;;;4919672;29;20205;-72
2023/05/31 06:49:46;;;;;;;3.47;1.92;;;30.50;15.30;;;;;;4918999;29;20219;-72
2023/05/31 06:52:15;;;;;;;2.15;1.98;;;30.80;15.00;;;;;;4917835;29;20625;-72
2023/05/31 06:54:44;;;;;;;2.17;1.50;;;30.90;15.60;;;;;;4919805;29;20201;-72
2023/05/31 06:57:10;;;;;;;1.60;1.50;;;31.50;14.60;;;;;;4918995;29;20213;-71
2023/05/31 06:59:37;;;;;;;2.17;2.03;;;31.40;14.60;;;;;;4919840;29;20205;-72
2023/05/31 07:02:04;;;;;;;1.77;1.67;;;30.80;14.60;;;;;;4918860;29;20229;-71
2023/05/31 07:04:31;;;;;;;2.15;1.90;;;30.60;15.90;;;;;;4918883;29;20287;-71
2023/05/31 07:06:57;;;;;;;1.83;1.73;;;30.30;15.80;;;;;;4918956;29;20205;-71
2023/05/31 07:09:25;;;;;;;1.80;1.70;;;30.70;16.20;;;;;;4919033;29;20211;-71
2023/05/31 07:11:52;;;;;;;2.15;1.38;;;30.70;15.60;;;;;;4918710;29;20228;-71
2023/05/31 07:14:19;;;;;;;1.90;1.80;;;30.40;15.30;;;;;;4918106;29;20443;-71
2023/05/31 07:16:45;;;;;;;2.28;1.70;;;29.80;16.30;;;;;;4918739;29;20220;-72
2023/05/31 07:19:12;;;;;;;2.00;1.90;;;29.50;16.70;;;;;;4918457;29;20208;-72
2023/05/31 07:21:39;;;;;;;3.80;1.45;;;30.10;16.70;;;;;;4918041;29;20567;-73
2023/05/31 07:24:06;;;;;;;2.00;1.90;;;30.70;15.40;;;;;;4917606;29;20446;-72
2023/05/31 07:26:34;;;;;;;3.03;1.90;;;30.00;16.10;;;;;;4918337;29;20213;-72
2023/05/31 07:29:00;;;;;;;3.10;1.92;;;29.20;17.20;;;;;;4918275;29;20208;-72
2023/05/31 07:31:27;;;;;;;2.17;1.98;;;29.10;17.50;;;;;;4918368;29;20189;-73
2023/05/31 07:33:55;;;;;;;4.00;1.73;;;29.30;17.20;;;;;;4918053;29;20225;-74
2023/05/31 07:36:24;;;;;;;1.75;1.70;;;28.90;17.00;;;;;;4918037;29;20208;-73
2023/05/31 07:38:51;;;;;;;2.70;2.13;;;29.10;17.90;;;;;;4918137;29;20292;-73
2023/05/31 13:38:37;;;;;;;3.90;2.00;;;21.50;25.80;;;;;;4915465;29;20845;-71
2023/05/31 13:41:05;;;;;;;4.07;2.15;;;21.50;25.70;;;;;;4918962;29;20220;-71
2023/05/31 13:43:33;;;;;;;3.92;1.73;;;21.50;25.50;;;;;;4917736;29;20235;-71
2023/05/31 13:46:00;;;;;;;4.28;1.83;;;21.50;24.60;;;;;;4917494;29;20205;-70
2023/05/31 13:48:27;;;;;;;1.60;1.50;;;21.40;24.60;;;;;;4916769;29;20314;-70
2023/05/31 13:50:53;;;;;;;3.10;1.95;;;21.30;25.10;;;;;;4916395;29;20205;-70
2023/05/31 13:53:21;;;;;;;5.30;1.60;;;21.30;25.70;;;;;;4916909;29;20229;-71
2023/05/31 13:55:49;;;;;;;2.30;2.10;;;21.40;25.40;;;;;;4917010;29;20216;-71
2023/05/31 13:58:17;;;;;;;1.90;1.80;;;21.50;25.80;;;;;;4916584;29;20228;-70
2023/05/31 14:00:44;;;;;;;2.53;1.70;;;21.50;25.60;;;;;;4916925;29;20260;-71
2023/05/31 14:03:10;;;;;;;5.28;1.70;;;21.50;24.60;;;;;;4920540;29;20290;-71
2023/05/31 14:05:37;;;;;;;2.25;1.75;;;21.60;24.70;;;;;;4920263;29;20568;-71
2023/05/31 14:08:04;;;;;;;2.33;1.67;;;21.60;24.70;;;;;;4920095;29;20311;-70
2023/05/31 14:10:31;;;;;;;2.20;1.90;;;21.70;24.70;;;;;;4920170;29;20209;-71
2023/05/31 14:12:59;;;;;;;3.67;1.67;;;21.60;24.20;;;;;;4920303;29;20216;-70
2023/05/31 14:15:26;;;;;;;1.33;1.25;;;21.60;24.20;;;;;;4920315;29;20204;-71
2023/05/31 14:17:52;;;;;;;2.17;1.55;;;21.60;24.10;;;;;;4920085;29;20708;-71
2023/05/31 14:20:19;;;;;;;2.55;1.95;;;21.60;24.50;;;;;;4923094;29;20205;-70
2023/05/31 14:22:46;;;;;;;2.05;1.73;;;21.60;24.70;;;;;;4941368;29;20205;-70
2023/05/31 14:25:12;;;;;;;4.28;2.22;;;21.70;24.70;;;;;;4940814;29;20211;-70
2023/05/31 14:27:39;;;;;;;3.05;2.13;;;21.70;24.70;;;;;;4941446;29;20228;-71
2023/05/31 14:30:08;;;;;;;3.80;2.15;;;21.70;24.00;;;;;;4932357;29;20613;-71
2023/05/31 14:32:35;;;;;;;3.78;2.03;;;21.70;24.00;;;;;;4919360;29;20564;-71
2023/05/31 14:35:02;;;;;;;1.95;1.85;;;21.60;23.20;;;;;;4943601;23;20242;-71
2023/05/31 14:37:29;;;;;;;3.83;1.95;;;21.70;23.80;;;;;;4918397;29;20217;-73
2023/05/31 14:39:56;;;;;;;2.22;1.88;;;21.70;24.00;;;;;;4919501;29;20220;-72
2023/05/31 14:42:23;;;;;;;6.00;2.25;;;21.60;24.00;;;;;;4918894;29;20699;-71
2023/05/31 14:44:50;;;;;;;2.17;1.63;;;21.60;23.70;;;;;;4919106;29;20226;-71
2023/05/31 14:47:18;;;;;;;2.40;1.63;;;21.60;22.70;;;;;;4918925;29;20712;-71
2023/05/31 14:49:45;;;;;;;3.22;1.63;;;21.60;22.50;;;;;;4918954;29;20693;-72
2023/05/31 14:52:12;;;;;;;2.58;2.25;;;21.60;22.60;;;;;;4919177;29;20209;-72
2023/05/31 14:54:39;;;;;;;2.10;2.00;;;21.60;23.20;;;;;;4918970;29;20228;-72
2023/05/31 14:57:06;;;;;;;2.70;1.95;;;21.50;23.60;;;;;;4918808;29;20288;-72
2023/05/31 14:59:33;;;;;;;3.08;1.65;;;21.50;24.50;;;;;;4918757;29;20193;-72
2023/05/31 15:02:01;;;;;;;2.92;1.98;;;21.60;23.70;;;;;;4918743;29;20209;-72
2023/05/31 15:04:29;;;;;;;2.45;1.98;;;21.60;24.40;;;;;;4918783;29;20204;-72
2023/05/31 15:06:55;;;;;;;2.72;1.77;;;21.50;24.30;;;;;;4919091;29;20256;-72
2023/05/31 15:09:22;;;;;;;2.80;1.58;;;21.50;24.30;;;;;;4919172;29;20212;-72
2023/05/31 15:11:49;;;;;;;3.25;1.70;;;21.50;23.50;;;;;;4918732;29;20209;-72
2023/05/31 15:14:16;;;;;;;3.78;1.70;;;21.50;23.50;;;;;;4917887;29;20225;-72
2023/05/31 15:16:43;;;;;;;12.30;1.88;;;21.50;23.40;;;;;;4918119;29;20228;-72
2023/05/31 15:19:10;;;;;;;3.13;1.55;;;21.40;23.50;;;;;;4919164;29;20189;-72
2023/05/31 15:21:38;;;;;;;3.70;1.70;;;21.40;23.40;;;;;;4918460;29;20211;-72
2023/05/31 15:24:05;;;;;;;7.78;2.17;;;21.30;23.80;;;;;;4918497;29;20205;-72
2023/05/31 15:26:31;;;;;;;4.10;1.73;;;21.40;23.40;;;;;;4918817;29;20232;-72
2023/05/31 15:28:58;;;;;;;1.83;1.50;;;21.40;23.20;;;;;;4918327;29;20691;-72
2023/05/31 15:31:25;;;;;;;3.58;2.10;;;21.40;22.30;;;;;;4918177;29;20208;-72
2023/05/31 15:33:52;;;;;;;3.22;1.67;;;21.30;21.50;;;;;;4917778;29;20585;-72
2023/05/31 15:36:19;;;;;;;3.97;1.85;;;21.40;22.40;;;;;;4917698;29;20264;-72
2023/05/31 15:38:48;;;;;;;2.65;1.77;;;21.40;23.00;;;;;;4918053;29;20252;-73
2023/05/31 15:41:15;;;;;;;1.45;1.40;;;21.40;23.30;;;;;;4917900;29;20204;-71
2023/05/31 15:43:42;;;;;;;2.17;2.08;;;21.50;23.30;;;;;;4918039;29;20208;-72
2023/05/31 15:46:09;;;;;;;2.00;1.90;;;21.50;23.50;;;;;;4918391;29;20221;-72
2023/05/31 15:48:36;;;;;;;2.58;2.00;;;21.50;23.80;;;;;;4917900;29;20243;-72
2023/05/31 15:51:03;;;;;;;2.00;1.48;;;21.50;23.80;;;;;;4917826;29;20208;-72
2023/05/31 15:53:31;;;;;;;2.45;1.58;;;21.50;23.30;;;;;;4922141;29;20680;-73
2023/05/31 15:55:59;;;;;;;4.93;2.05;;;21.40;23.40;;;;;;4921229;29;20316;-72
2023/05/31 15:58:27;;;;;;;2.03;1.90;;;21.40;23.40;;;;;;4920898;29;20530;-72
2023/05/31 16:00:55;;;;;;;1.65;1.52;;;21.40;23.20;;;;;;4918020;29;20205;-72
2023/05/31 16:03:22;;;;;;;2.53;2.00;;;21.30;22.90;;;;;;4919621;29;20224;-72
2023/05/31 16:05:49;;;;;;;3.17;1.77;;;21.30;23.30;;;;;;4921826;29;20284;-72
2023/05/31 16:08:16;;;;;;;4.97;1.98;;;21.30;22.20;;;;;;4919386;29;20257;-72
2023/05/31 16:10:43;;;;;;;1.73;1.50;;;21.30;22.60;;;;;;4919996;29;20300;-72
2023/05/31 16:13:11;;;;;;;2.97;1.58;;;21.20;23.10;;;;;;4921434;29;20225;-72
2023/05/31 16:15:38;;;;;;;3.33;1.80;;;21.20;23.40;;;;;;4921285;29;20228;-72
2023/05/31 16:18:05;;;;;;;2.88;1.50;;;21.10;23.40;;;;;;4920809;29;20224;-72
2023/05/31 16:20:32;;;;;;;5.88;1.92;;;21.10;23.10;;;;;;4919849;29;20209;-70
2023/05/31 16:23:00;;;;;;;2.72;2.05;;;21.10;22.80;;;;;;4920829;29;20200;-72
2023/05/31 16:25:26;;;;;;;3.35;1.73;;;21.10;23.40;;;;;;4919187;29;20224;-72
2023/05/31 16:27:53;;;;;;;3.00;2.55;;;21.10;23.60;;;;;;4917208;29;20220;-72
2023/05/31 16:30:21;;;;;;;2.58;2.00;;;21.00;23.10;;;;;;4917251;29;20205;-72
2023/05/31 16:32:48;;;;;;;2.00;1.73;;;21.00;23.40;;;;;;4917074;29;20189;-71
2023/05/31 16:35:15;;;;;;;4.55;2.00;;;21.00;23.60;;;;;;4916966;29;20231;-72
2023/05/31 16:37:41;;;;;;;2.92;1.80;;;21.00;23.90;;;;;;4917559;29;20197;-73
2023/05/31 16:40:09;;;;;;;1.98;1.85;;;21.00;24.30;;;;;;4917137;29;20209;-73
2023/05/31 16:42:36;;;;;;;6.35;1.85;;;20.90;24.20;;;;;;4917134;29;20205;-73
2023/05/31 16:45:04;;;;;;;2.17;1.80;;;20.90;23.80;;;;;;4917284;29;20208;-73
2023/05/31 16:47:32;;;;;;;2.90;2.00;;;20.90;24.20;;;;;;4917084;29;20205;-72
2023/05/31 16:49:58;;;;;;;2.22;1.73;;;20.90;24.20;;;;;;4917194;29;20221;-72
2023/05/31 16:52:25;;;;;;;2.05;1.60;;;20.80;24.20;;;;;;4916854;29;20691;-73
2023/05/31 16:54:52;;;;;;;4.25;1.60;;;20.70;24.10;;;;;;4917174;29;20224;-73
2023/05/31 16:57:19;;;;;;;4.45;1.80;;;20.70;24.70;;;;;;4916888;29;20228;-72
2023/05/31 16:59:45;;;;;;;1.63;1.52;;;20.70;24.10;;;;;;4917051;29;20205;-71
2023/05/31 17:02:12;;;;;;;2.72;1.70;;;20.70;24.60;;;;;;4916614;29;20211;-72
2023/05/31 17:04:40;;;;;;;3.03;1.95;;;20.70;24.10;;;;;;4917238;29;20205;-72
2023/05/31 17:07:07;;;;;;;3.20;1.80;;;20.70;24.10;;;;;;4917210;29;20232;-72
2023/05/31 17:09:34;;;;;;;4.07;2.05;;;20.60;24.00;;;;;;4916720;29;20292;-71
2023/05/31 17:12:01;;;;;;;1.55;1.45;;;20.60;23.70;;;;;;4917608;29;20229;-72
2023/05/31 17:14:27;;;;;;;1.80;1.70;;;20.60;23.60;;;;;;4917228;29;20224;-72
2023/05/31 17:16:54;;;;;;;2.45;1.73;;;20.50;23.80;;;;;;4917579;29;20244;-72
2023/05/31 17:19:21;;;;;;;3.42;1.70;;;20.50;23.30;;;;;;4916700;29;20211;-72
2023/05/31 17:21:49;;;;;;;4.43;1.92;;;20.50;23.70;;;;;;4916845;29;20208;-72
2023/05/31 17:24:16;;;;;;;1.67;1.58;;;20.50;23.00;;;;;;4916556;29;20568;-72
2023/05/31 17:26:45;;;;;;;4.53;1.80;;;20.40;22.80;;;;;;4916655;29;20228;-72
2023/05/31 17:29:12;;;;;;;1.65;1.50;;;20.40;22.90;;;;;;4916724;29;20212;-72
2023/05/31 17:31:39;;;;;;;1.50;1.40;;;20.40;22.70;;;;;;4916522;29;20205;-72
2023/05/31 17:34:05;;;;;;;2.53;1.73;;;20.40;22.90;;;;;;4917636;29;20623;-72
2023/05/31 17:36:32;;;;;;;2.63;1.55;;;20.40;23.10;;;;;;4917637;29;20319;-72
2023/05/31 17:39:00;;;;;;;2.78;1.30;;;20.30;23.10;;;;;;4919910;29;20212;-72
2023/05/31 17:41:27;;;;;;;4.90;1.77;;;20.30;23.10;;;;;;4920000;29;20339;-72
2023/05/31 17:43:54;;;;;;;1.67;1.58;;;20.30;23.20;;;;;;4922585;29;20209;-72
2023/05/31 17:46:21;;;;;;;1.73;1.63;;;20.30;23.00;;;;;;4923173;29;20235;-72
2023/05/31 17:48:48;;;;;;;7.03;2.20;;;20.20;23.20;;;;;;4923798;29;20201;-73
2023/05/31 17:51:15;;;;;;;2.00;1.50;;;20.20;23.20;;;;;;4921690;29;20292;-72
2023/05/31 17:53:42;;;;;;;1.80;1.70;;;20.20;23.10;;;;;;4919992;29;20216;-73
2023/05/31 17:56:11;;;;;;;5.05;2.08;;;20.10;23.20;;;;;;4922048;29;20229;-73
2023/05/31 17:58:38;;;;;;;1.88;1.50;;;20.10;23.30;;;;;;4924093;29;20257;-73
2023/05/31 18:01:05;;;;;;;4.45;2.00;;;20.00;22.90;;;;;;4920348;29;20182;-73
2023/05/31 18:03:31;;;;;;;1.92;1.75;;;20.00;23.00;;;;;;4919650;29;20212;-73
2023/05/31 18:05:58;;;;;;;4.30;1.98;;;20.00;22.90;;;;;;4919436;29;20617;-73
2023/05/31 18:08:25;;;;;;;2.28;1.90;;;19.90;23.10;;;;;;4919752;29;20549;-72
2023/05/31 18:10:52;;;;;;;2.60;1.70;;;19.90;23.30;;;;;;4919717;29;20201;-74
2023/05/31 18:13:20;;;;;;;3.15;1.85;;;19.80;23.50;;;;;;4919798;29;20209;-73
2023/05/31 18:15:47;;;;;;;1.73;1.50;;;19.80;23.50;;;;;;4920182;29;20252;-72
2023/05/31 18:18:13;;;;;;;3.13;1.95;;;19.70;23.60;;;;;;4919794;29;20276;-72
2023/05/31 18:20:40;;;;;;;1.80;1.70;;;19.70;23.80;;;;;;4919766;29;20205;-73
2023/05/31 18:23:07;;;;;;;2.20;2.00;;;19.70;24.20;;;;;;4919628;29;20672;-73
2023/05/31 18:25:33;;;;;;;2.00;1.70;;;19.60;24.20;;;;;;4919834;29;20225;-73
2023/05/31 18:28:00;;;;;;;2.10;1.90;;;19.60;24.40;;;;;;4919881;29;20212;-73
2023/05/31 18:30:32;;;;;;;4.70;2.60;;;19.50;24.60;;;;;;4919609;29;20549;-73
2023/05/31 18:32:58;;;;;;;3.67;2.00;;;19.50;24.70;;;;;;4919574;29;20193;-73
2023/05/31 18:35:25;;;;;;;4.65;1.90;;;19.40;24.70;;;;;;4919023;29;20684;-73
2023/05/31 18:37:52;;;;;;;3.35;2.17;;;19.30;24.90;;;;;;4919793;29;20212;-73
2023/05/31 18:40:19;;;;;;;2.40;2.17;;;19.30;24.90;;;;;;4919550;29;20672;-72
2023/05/31 18:42:45;;;;;;;2.05;1.77;;;19.30;25.20;;;;;;4919541;29;20212;-71
2023/05/31 18:45:13;;;;;;;2.15;1.95;;;19.20;25.40;;;;;;4922785;29;20679;-71
2023/05/31 18:47:41;;;;;;;2.03;1.83;;;19.20;25.60;;;;;;4921184;29;20209;-72
2023/05/31 18:50:08;;;;;;;2.47;1.77;;;19.10;25.70;;;;;;4919503;29;20211;-72
2023/05/31 18:52:35;;;;;;;3.53;2.40;;;19.00;25.80;;;;;;4919083;29;20228;-72
2023/05/31 18:55:02;;;;;;;3.90;2.10;;;18.90;26.00;;;;;;4918877;29;20224;-72
2023/05/31 18:57:28;;;;;;;4.10;2.15;;;18.90;26.20;;;;;;4918932;29;20212;-72
2023/05/31 18:59:56;;;;;;;4.38;2.10;;;18.80;26.30;;;;;;4918889;29;20215;-72
2023/05/31 19:02:23;;;;;;;2.92;2.05;;;18.70;26.50;;;;;;4918803;29;20201;-72
2023/05/31 19:04:51;;;;;;;3.35;2.10;;;18.60;26.70;;;;;;4918776;29;20208;-72
2023/05/31 19:07:18;;;;;;;2.03;1.80;;;18.60;26.80;;;;;;4918971;29;20280;-71
2023/05/31 19:09:45;;;;;;;2.13;1.92;;;18.50;26.80;;;;;;4918509;29;20588;-71
2023/05/31 19:12:12;;;;;;;2.00;1.85;;;18.40;27.10;;;;;;4918757;29;20208;-71
2023/05/31 19:14:39;;;;;;;2.38;2.20;;;18.30;27.20;;;;;;4918713;29;20691;-71
2023/05/31 19:17:06;;;;;;;7.25;2.45;;;18.20;28.00;;;;;;4918727;29;20267;-72
2023/05/31 19:19:32;;;;;;;3.08;2.03;;;18.10;28.30;;;;;;4918741;29;20553;-70
2023/05/31 19:22:00;;;;;;;4.18;2.42;;;18.00;28.50;;;;;;4918571;29;20602;-70
2023/05/31 19:24:27;;;;;;;2.05;1.95;;;17.80;28.90;;;;;;4918771;29;20205;-70
2023/05/31 19:26:54;;;;;;;2.08;1.98;;;17.60;29.30;;;;;;4918497;29;20236;-71
2023/05/31 19:29:21;;;;;;;1.55;1.45;;;17.50;29.50;;;;;;4918493;29;20212;-71
2023/05/31 19:31:48;;;;;;;1.88;1.77;;;17.30;30.00;;;;;;4918429;29;20208;-71
2023/05/31 19:34:15;;;;;;;1.83;1.73;;;17.10;32.80;;;;;;4918464;29;20257;-71
2023/05/31 19:36:41;;;;;;;3.13;1.77;;;16.90;35.30;;;;;;4917973;29;20716;-71
2023/05/31 19:39:15;;;;;;;1.85;1.80;;;16.80;39.20;;;;;;4918246;29;20294;-71
2023/05/31 19:41:42;;;;;;;1.50;1.50;;;16.60;40.70;;;;;;4918241;29;20270;-71
2023/05/31 19:44:09;;;;;;;1.50;1.48;;;16.40;44.10;;;;;;4918335;29;20205;-71
2023/05/31 19:46:36;;;;;;;1.33;1.33;;;16.20;47.00;;;;;;4918163;29;20272;-71
2023/05/31 19:49:02;;;;;;;1.55;1.45;;;16.00;49.40;;;;;;4918094;29;20209;-71
2023/05/31 19:51:29;;;;;;;1.23;1.23;;;15.80;52.10;;;;;;4918419;29;20213;-71
2023/05/31 19:53:56;;;;;;;1.40;1.30;;;15.60;54.50;;;;;;4917666;29;20700;-71
2023/05/31 19:56:25;;;;;;;1.27;1.27;;;15.40;57.60;;;;;;4917833;29;20236;-70
2023/05/31 19:58:52;;;;;;;1.40;1.40;;;15.30;60.40;;;;;;4917711;29;20212;-70
2023/05/31 20:01:18;;;;;;;1.40;0.93;;;15.20;65.20;;;;;;4917559;29;20569;-71
2023/05/31 20:03:45;;;;;;;1.35;1.27;;;15.10;69.50;;;;;;4917536;29;20209;-70
2023/05/31 20:06:12;;;;;;;1.10;1.10;;;14.90;74.10;;;;;;4917615;29;20585;-71
2023/05/31 20:08:39;;;;;;;1.13;1.13;;;14.80;76.10;;;;;;4917896;29;20205;-70
2023/05/31 20:11:06;;;;;;;1.17;1.17;;;14.70;80.40;;;;;;4917723;29;20236;-70
2023/05/31 20:13:34;;;;;;;1.35;1.30;;;14.60;84.70;;;;;;4917687;29;20682;-70
2023/05/31 20:16:01;;;;;;;1.65;1.30;;;14.50;89.10;;;;;;4917267;29;20645;-70
2023/05/31 20:18:27;;;;;;;1.45;1.35;;;14.40;89.50;;;;;;4917644;29;20205;-70
2023/05/31 20:20:54;;;;;;;1.30;1.30;;;14.30;91.20;;;;;;4917600;29;20205;-71
2023/05/31 20:23:21;;;;;;;1.50;1.40;;;14.20;93.00;;;;;;4917476;29;20206;-71
2023/05/31 20:25:48;;;;;;;1.38;1.38;;;14.10;95.60;;;;;;4917420;29;20225;-70
2023/05/31 20:28:16;;;;;;;1.45;1.35;;;14.00;98.00;;;;;;4917576;29;20272;-70
2023/05/31 20:30:44;;;;;;;1.60;1.50;;;14.00;99.90;;;;;;4917013;29;20703;-70
2023/05/31 20:33:10;;;;;;;1.50;1.50;;;13.90;99.90;;;;;;4917318;29;20210;-70
2023/05/31 20:35:37;;;;;;;1.17;1.17;;;13.80;99.90;;;;;;4938349;23;20236;-69
2023/05/31 20:38:04;;;;;;;1.30;1.23;;;13.70;99.90;;;;;;4917662;29;20221;-70
2023/05/31 20:40:30;;;;;;;1.25;1.25;;;13.60;99.90;;;;;;4917530;29;20212;-70
2023/05/31 20:42:57;;;;;;;1.40;1.40;;;13.50;99.90;;;;;;4917630;29;20205;-69
2023/05/31 20:45:24;;;;;;;2.25;1.55;;;13.50;99.90;;;;;;4917531;29;20209;-69
2023/05/31 20:47:53;;;;;;;1.83;1.65;;;13.40;99.90;;;;;;4917517;29;20580;-69
2023/05/31 20:50:20;;;;;;;1.33;1.23;;;13.40;99.90;;;;;;4918056;29;20205;-69
2023/05/31 20:52:47;;;;;;;1.42;1.42;;;13.30;99.90;;;;;;4917334;29;20212;-69
2023/05/31 20:55:13;;;;;;;1.40;1.40;;;13.30;99.90;;;;;;4917591;29;20208;-69
2023/05/31 20:57:40;;;;;;;1.70;1.63;;;13.20;99.90;;;;;;4916994;29;20252;-70
2023/05/31 21:00:08;;;;;;;1.67;1.58;;;13.10;99.90;;;;;;4917708;29;20209;-68
2023/05/31 21:02:35;;;;;;;1.85;1.75;;;13.10;99.90;;;;;;4917915;29;20209;-69
2023/05/31 21:05:03;;;;;;;1.55;1.38;;;13.00;99.90;;;;;;4917176;29;20232;-70
2023/05/31 21:07:30;;;;;;;1.70;1.60;;;12.90;99.90;;;;;;4916283;29;20228;-69
2023/05/31 21:09:56;;;;;;;1.20;1.20;;;12.90;99.90;;;;;;4916764;29;20672;-69
2023/05/31 21:12:23;;;;;;;1.50;1.40;;;12.80;99.90;;;;;;4919667;29;20209;-69
2023/05/31 21:14:52;;;;;;;1.40;1.30;;;12.80;99.90;;;;;;4920509;29;20541;-69
2023/05/31 21:17:19;;;;;;;1.45;1.45;;;12.80;99.90;;;;;;4920725;29;20260;-70
2023/05/31 21:19:46;;;;;;;1.60;1.60;;;12.70;99.90;;;;;;4920854;29;20216;-69
2023/05/31 21:22:14;;;;;;;1.88;1.40;;;12.70;99.90;;;;;;4920543;29;20612;-68
2023/05/31 21:24:40;;;;;;;3.33;1.80;;;12.60;99.90;;;;;;4920731;29;20205;-68
2023/05/31 21:27:07;;;;;;;1.67;1.58;;;12.60;99.90;;;;;;4920590;29;20535;-68
2023/05/31 21:29:34;;;;;;;1.30;1.25;;;12.50;99.90;;;;;;4920680;29;20208;-69
2023/05/31 21:32:01;;;;;;;1.40;1.30;;;12.50;99.90;;;;;;4920844;29;20288;-68
2023/05/31 21:34:27;;;;;;;1.58;1.50;;;12.50;99.90;;;;;;4920726;29;20213;-68
2023/05/31 21:36:54;;;;;;;1.40;1.40;;;12.40;99.90;;;;;;4920172;29;20240;-68
